Time;durP1;ratioP1;P1;durP2;ratioP2;P2;SDS_P1;SDS_P2;PMS_P1;PMS_P2;Temp;Humidity;BMP_temperature;BMP_pressure;BME280_temperature;BME280_humidity;BME280_pressure;Samples;Min_cycle;Max_cycle;Signal;HPM_P1;HPM_P2
2022/08/17 00:00:51;;;;;;;11.05;6.10;;;17.60;99.90;;;;;;5055293;28;20060;-76
2022/08/17 00:03:21;;;;;;;9.80;6.45;;;17.50;99.90;;;;;;5036871;28;20186;-76
2022/08/17 00:05:50;;;;;;;11.40;6.40;;;17.50;99.90;;;;;;5054740;28;20110;-76
2022/08/17 00:08:23;;;;;;;10.13;5.90;;;17.40;99.90;;;;;;5036821;28;20041;-76
2022/08/17 00:10:53;;;;;;;10.88;6.32;;;17.40;99.90;;;;;;5055093;28;20067;-76
2022/08/17 00:13:25;;;;;;;8.52;6.10;;;17.30;99.90;;;;;;5055223;28;20090;-76
2022/08/17 00:15:55;;;;;;;9.80;6.10;;;17.20;99.90;;;;;;5058980;28;20056;-77
2022/08/17 00:18:23;;;;;;;11.15;6.13;;;17.20;99.90;;;;;;5054536;28;20507;-77
2022/08/17 00:20:50;;;;;;;10.23;5.95;;;17.20;99.90;;;;;;5056267;28;20491;-76
2022/08/17 00:23:17;;;;;;;14.18;6.75;;;17.20;99.90;;;;;;5056504;28;20041;-76
2022/08/17 00:25:46;;;;;;;13.45;7.30;;;17.20;99.90;;;;;;5054892;28;20088;-77
2022/08/17 00:28:16;;;;;;;13.93;6.70;;;17.20;99.90;;;;;;5054841;28;20068;-77
2022/08/17 00:30:44;;;;;;;12.27;7.47;;;17.30;99.90;;;;;;5055209;28;20041;-77
2022/08/17 00:33:14;;;;;;;12.80;6.43;;;17.30;99.90;;;;;;5041224;28;20139;-76
2022/08/17 00:35:42;;;;;;;9.95;5.80;;;17.30;99.90;;;;;;5068959;28;20053;-76
2022/08/17 00:38:11;;;;;;;11.27;6.68;;;17.30;99.90;;;;;;5049832;28;20103;-77
2022/08/17 00:40:40;;;;;;;7.95;6.82;;;17.30;99.90;;;;;;5068744;28;20056;-76
2022/08/17 00:43:13;;;;;;;12.70;7.75;;;17.20;99.90;;;;;;5068667;28;20049;-76
2022/08/17 00:45:43;;;;;;;9.32;7.35;;;17.20;99.90;;;;;;5057939;28;20048;-77
2022/08/17 00:48:11;;;;;;;10.18;7.38;;;17.20;99.90;;;;;;5037690;28;20127;-77
2022/08/17 00:50:41;;;;;;;9.65;6.68;;;17.10;99.90;;;;;;5054905;28;20032;-77
2022/08/17 00:53:09;;;;;;;8.80;6.65;;;17.10;99.90;;;;;;5055044;28;20450;-77
2022/08/17 00:55:36;;;;;;;11.25;6.85;;;17.10;99.90;;;;;;5054253;28;20057;-77
2022/08/17 00:58:06;;;;;;;8.68;6.90;;;17.10;99.90;;;;;;5055720;28;20037;-77
2022/08/17 01:00:38;;;;;;;8.85;6.82;;;17.20;99.90;;;;;;5054440;28;20470;-77
2022/08/17 01:03:10;;;;;;;10.25;6.90;;;17.20;99.90;;;;;;5053921;28;20408;-77
2022/08/17 01:05:39;;;;;;;11.65;7.43;;;17.10;99.90;;;;;;5054568;28;20059;-76
2022/08/17 01:08:09;;;;;;;11.07;6.95;;;17.10;99.90;;;;;;5053404;28;20033;-76
2022/08/17 01:10:39;;;;;;;9.00;6.57;;;17.10;99.90;;;;;;5036610;28;20084;-77
2022/08/17 01:13:07;;;;;;;9.10;5.90;;;17.00;99.90;;;;;;5036780;28;20103;-77
2022/08/17 01:15:37;;;;;;;9.43;7.22;;;17.00;99.90;;;;;;5053733;28;20052;-77
2022/08/17 01:18:09;;;;;;;8.25;6.30;;;17.00;99.90;;;;;;5054332;28;20047;-77
2022/08/17 01:20:38;;;;;;;11.05;6.22;;;16.90;99.90;;;;;;5037564;28;20045;-79
2022/08/17 01:23:07;;;;;;;10.40;6.32;;;16.80;99.90;;;;;;5054475;28;20124;-77
2022/08/17 01:25:35;;;;;;;10.93;6.13;;;16.70;99.90;;;;;;5055091;28;20067;-76
2022/08/17 01:28:02;;;;;;;11.73;6.63;;;16.60;99.90;;;;;;5054630;28;20393;-76
2022/08/17 01:30:30;;;;;;;8.77;6.55;;;16.60;99.90;;;;;;5055364;28;20040;-77
2022/08/17 01:32:57;;;;;;;10.57;6.13;;;16.60;99.90;;;;;;5059173;28;20099;-77
2022/08/17 01:35:25;;;;;;;11.15;6.18;;;16.60;99.90;;;;;;5057964;28;20037;-77
2022/08/17 01:37:52;;;;;;;11.10;6.35;;;16.60;99.90;;;;;;5058448;28;20045;-78
2022/08/17 01:40:25;;;;;;;8.32;6.22;;;16.60;99.90;;;;;;5040097;28;20045;-77
2022/08/17 01:42:57;;;;;;;9.80;6.68;;;16.60;99.90;;;;;;5057571;28;20040;-77
2022/08/17 01:45:27;;;;;;;9.00;6.30;;;16.60;99.90;;;;;;5058150;28;20041;-77
2022/08/17 01:47:55;;;;;;;9.88;6.60;;;16.60;99.90;;;;;;5058826;28;20045;-77
2022/08/17 01:50:26;;;;;;;13.60;6.13;;;16.70;99.90;;;;;;5057657;28;20159;-76
2022/08/17 01:52:57;;;;;;;12.32;7.05;;;16.70;99.90;;;;;;5058044;28;20037;-77
2022/08/17 01:55:31;;;;;;;12.30;6.95;;;16.60;99.90;;;;;;5057352;28;20523;-76
2022/08/17 01:57:59;;;;;;;8.88;6.97;;;16.60;99.90;;;;;;5058122;28;20048;-77
2022/08/17 02:00:28;;;;;;;14.60;7.63;;;16.60;99.90;;;;;;5040750;28;20466;-75
2022/08/17 02:02:56;;;;;;;13.23;7.18;;;16.60;99.90;;;;;;5058369;28;20545;-76
2022/08/17 02:05:23;;;;;;;9.27;7.47;;;16.60;99.90;;;;;;5057669;28;20040;-77
2022/08/17 02:07:51;;;;;;;9.45;7.35;;;16.60;99.90;;;;;;5058487;28;20036;-77
2022/08/17 02:10:18;;;;;;;8.95;6.65;;;16.60;99.90;;;;;;5057718;28;20115;-76
2022/08/17 02:12:47;;;;;;;9.63;6.78;;;16.60;99.90;;;;;;5057398;28;20069;-77
2022/08/17 02:15:14;;;;;;;9.10;6.63;;;16.60;99.90;;;;;;5058281;28;20061;-78
2022/08/17 02:17:42;;;;;;;9.27;6.90;;;16.50;99.90;;;;;;5060391;28;20037;-77
2022/08/17 02:20:10;;;;;;;10.35;7.13;;;16.60;99.90;;;;;;5061756;28;20107;-78
2022/08/17 02:22:40;;;;;;;11.73;7.85;;;16.50;99.90;;;;;;5044160;28;20091;-78
2022/08/17 02:25:09;;;;;;;11.50;7.63;;;16.50;99.90;;;;;;5043991;28;20057;-77
2022/08/17 02:27:37;;;;;;;14.38;7.65;;;16.50;99.90;;;;;;5061827;28;20138;-78
2022/08/17 02:30:09;;;;;;;10.57;8.00;;;16.50;99.90;;;;;;5060116;28;20063;-76
2022/08/17 02:32:37;;;;;;;12.48;7.95;;;16.40;99.90;;;;;;5038328;28;20037;-76
2022/08/17 02:35:05;;;;;;;8.98;7.30;;;16.40;99.90;;;;;;5026997;28;20053;-76
2022/08/17 02:37:33;;;;;;;10.00;7.60;;;16.40;99.90;;;;;;5037258;28;20099;-76
2022/08/17 02:40:00;;;;;;;45.40;30.00;;;16.40;99.90;;;;;;5029749;28;20038;-76
2022/08/17 02:42:32;;;;;;;15.55;8.73;;;16.40;99.90;;;;;;5036142;28;20099;-76
2022/08/17 02:45:00;;;;;;;14.15;8.88;;;16.40;99.90;;;;;;5037641;28;20041;-77
2022/08/17 02:47:30;;;;;;;11.43;7.85;;;16.40;99.90;;;;;;5038343;28;20045;-76
2022/08/17 02:49:57;;;;;;;13.57;10.25;;;16.40;99.90;;;;;;5056451;28;20123;-77
2022/08/17 02:52:26;;;;;;;12.85;7.70;;;16.30;99.90;;;;;;5039093;28;20082;-78
2022/08/17 02:54:54;;;;;;;12.80;7.88;;;16.40;99.90;;;;;;5063345;28;20105;-77
2022/08/17 02:57:21;;;;;;;11.57;6.75;;;16.30;99.90;;;;;;5058261;28;20048;-76
2022/08/17 02:59:49;;;;;;;13.38;7.53;;;16.30;99.90;;;;;;5038522;28;20049;-78
2022/08/17 03:02:16;;;;;;;14.10;8.00;;;16.30;99.90;;;;;;5055854;28;20041;-77
2022/08/17 03:04:45;;;;;;;14.55;7.28;;;16.30;99.90;;;;;;5055404;28;20040;-77
2022/08/17 03:07:12;;;;;;;12.95;7.88;;;16.30;99.90;;;;;;5055797;28;20496;-77
2022/08/17 03:09:39;;;;;;;12.68;7.80;;;16.20;99.90;;;;;;5056348;28;20072;-76
2022/08/17 03:12:09;;;;;;;11.15;8.30;;;16.20;99.90;;;;;;5039328;28;20052;-77
2022/08/17 03:14:37;;;;;;;10.88;7.40;;;16.20;99.90;;;;;;5057059;28;20041;-77
2022/08/17 03:17:05;;;;;;;13.40;7.47;;;16.10;99.90;;;;;;5038091;28;20095;-77
2022/08/17 03:19:32;;;;;;;11.32;7.40;;;16.10;99.90;;;;;;5055843;28;20041;-77
2022/08/17 03:22:04;;;;;;;8.20;6.80;;;16.10;99.90;;;;;;5055468;28;20400;-77
2022/08/17 03:24:31;;;;;;;11.85;6.68;;;16.10;99.90;;;;;;5056416;28;20072;-76
2022/08/17 03:26:59;;;;;;;12.43;7.18;;;16.10;99.90;;;;;;5055790;28;20519;-76
2022/08/17 03:29:26;;;;;;;9.93;7.18;;;16.10;99.90;;;;;;5055591;28;20041;-76
2022/08/17 03:31:53;;;;;;;13.13;7.85;;;16.10;99.90;;;;;;5056209;28;20148;-77
2022/08/17 03:34:20;;;;;;;11.23;7.70;;;16.10;99.90;;;;;;5055492;28;20052;-76
2022/08/17 03:36:48;;;;;;;14.68;8.00;;;16.10;99.90;;;;;;5054984;28;20059;-77
2022/08/17 03:39:16;;;;;;;12.45;8.30;;;16.10;99.90;;;;;;5056206;28;20112;-77
2022/08/17 03:41:44;;;;;;;9.75;7.97;;;16.00;99.90;;;;;;5055065;28;20048;-77
2022/08/17 03:44:11;;;;;;;11.40;8.52;;;16.00;99.90;;;;;;5056562;28;20106;-77
2022/08/17 03:57:38;;;;;;;12.95;8.13;;;16.00;99.90;;;;;;5029089;28;20083;-78
2022/08/17 04:00:07;;;;;;;13.48;8.00;;;16.00;99.90;;;;;;5035979;28;20060;-78
2022/08/17 04:02:39;;;;;;;14.07;8.57;;;16.00;99.90;;;;;;5035412;28;20049;-79
2022/08/17 04:05:07;;;;;;;14.27;8.68;;;16.10;99.90;;;;;;5035763;28;20053;-78
2022/08/17 04:07:34;;;;;;;9.70;7.38;;;16.10;99.90;;;;;;5018268;28;20051;-79
2022/08/17 04:10:03;;;;;;;13.05;7.93;;;16.10;99.90;;;;;;5017837;28;20049;-80
2022/08/17 04:12:45;;;;;;;14.10;7.63;;;16.10;99.90;;;;;;5034853;28;20500;-78
2022/08/17 04:15:13;;;;;;;13.38;8.02;;;16.20;99.90;;;;;;5035628;28;20049;-78
2022/08/17 04:17:40;;;;;;;14.38;7.80;;;16.20;99.90;;;;;;5036198;28;20492;-79
2022/08/17 04:20:09;;;;;;;9.65;6.70;;;16.50;99.90;;;;;;5036687;28;20048;-80
2022/08/17 04:22:36;;;;;;;12.05;7.78;;;16.90;99.90;;;;;;5036006;28;20045;-78
2022/08/17 04:25:09;;;;;;;10.18;6.63;;;17.40;99.90;;;;;;5023351;28;20068;-77
2022/08/17 04:27:37;;;;;;;9.30;6.55;;;17.80;99.90;;;;;;5042904;28;20053;-78
2022/08/17 04:30:06;;;;;;;15.35;6.40;;;18.20;99.90;;;;;;5044300;28;20045;-78
2022/08/17 04:32:50;;;;;;;13.35;7.38;;;18.30;99.90;;;;;;5045307;28;20077;-78
2022/08/17 04:35:20;;;;;;;12.13;6.95;;;18.30;99.90;;;;;;5045635;28;20519;-79
2022/08/17 04:37:47;;;;;;;12.55;7.13;;;18.20;99.90;;;;;;5042088;28;20041;-79
2022/08/17 04:43:03;;;;;;;14.13;6.90;;;18.10;99.90;;;;;;5029338;28;20051;-78
2022/08/17 04:45:30;;;;;;;13.60;6.65;;;18.10;99.90;;;;;;5047941;28;20044;-78
2022/08/17 04:47:57;;;;;;;11.77;6.85;;;18.20;99.90;;;;;;5047607;28;20076;-78
2022/08/17 04:50:25;;;;;;;12.98;6.72;;;18.20;99.90;;;;;;5048178;28;20045;-77
2022/08/17 04:52:52;;;;;;;11.98;6.32;;;18.20;99.90;;;;;;5047691;28;20049;-77
2022/08/17 04:55:21;;;;;;;11.70;7.72;;;18.20;99.90;;;;;;5046205;28;20081;-78
2022/08/17 04:57:48;;;;;;;14.98;7.70;;;18.30;99.90;;;;;;5045382;28;20132;-79
2022/08/17 05:00:16;;;;;;;18.20;6.93;;;18.30;99.90;;;;;;5059850;28;20541;-79
2022/08/17 05:02:48;;;;;;;10.10;6.72;;;18.40;99.90;;;;;;5063183;28;20053;-78
2022/08/17 05:05:19;;;;;;;14.18;7.25;;;18.50;99.90;;;;;;5046977;28;20218;-77
2022/08/17 05:07:46;;;;;;;13.85;8.05;;;18.70;99.90;;;;;;5048428;28;20060;-76
2022/08/17 05:10:13;;;;;;;12.35;6.75;;;18.90;99.90;;;;;;5066773;28;20464;-77
2022/08/17 05:12:42;;;;;;;12.43;6.72;;;19.00;99.90;;;;;;5047895;28;20080;-77
2022/08/17 05:15:14;;;;;;;13.70;8.05;;;19.10;99.90;;;;;;5060890;28;20412;-77
2022/08/17 05:17:42;;;;;;;13.85;7.35;;;19.10;99.90;;;;;;5056044;28;20072;-79
2022/08/17 05:20:10;;;;;;;16.13;7.70;;;19.10;99.90;;;;;;5039501;28;20056;-79
2022/08/17 05:22:48;;;;;;;13.23;8.48;;;19.30;99.90;;;;;;5056026;28;20069;-79
2022/08/17 05:25:15;;;;;;;17.73;10.00;;;19.30;99.90;;;;;;5061899;28;20055;-77
2022/08/17 05:27:44;;;;;;;13.30;7.15;;;19.60;99.90;;;;;;5068188;28;20048;-76
2022/08/17 05:30:12;;;;;;;13.55;9.85;;;19.70;99.90;;;;;;5061689;28;20083;-77
2022/08/17 05:32:39;;;;;;;15.30;7.30;;;19.80;99.90;;;;;;5057098;28;20099;-78
2022/08/17 05:35:07;;;;;;;16.73;7.90;;;20.00;99.90;;;;;;5056401;28;20045;-78
2022/08/17 05:37:35;;;;;;;16.52;7.18;;;20.10;99.90;;;;;;5056480;28;20043;-79
2022/08/17 05:40:02;;;;;;;14.75;7.68;;;20.30;99.90;;;;;;5041626;28;20060;-77
2022/08/17 05:42:30;;;;;;;12.73;7.57;;;20.60;99.90;;;;;;5057648;28;20124;-77
2022/08/17 05:44:59;;;;;;;12.02;7.50;;;20.80;99.90;;;;;;5058030;28;20045;-79
2022/08/17 05:47:27;;;;;;;14.63;7.40;;;21.00;99.90;;;;;;5059994;28;20049;-76
2022/08/17 05:49:54;;;;;;;19.35;7.97;;;21.40;99.90;;;;;;5046445;28;20037;-83
2022/08/17 05:52:32;;;;;;;20.08;9.90;;;21.60;99.90;;;;;;5055389;28;20073;-82
2022/08/17 05:55:17;;;;;;;14.85;7.82;;;21.90;99.90;;;;;;5047660;28;20057;-82
2022/08/17 05:57:59;;;;;;;17.35;8.60;;;22.10;99.90;;;;;;5060001;28;20178;-81
2022/08/17 06:00:33;;;;;;;13.88;7.70;;;22.20;99.90;;;;;;5068493;28;20033;-82
2022/08/17 06:03:13;;;;;;;12.10;7.72;;;22.40;99.90;;;;;;5049986;28;20037;-82
2022/08/17 06:06:00;;;;;;;16.27;8.30;;;22.70;99.90;;;;;;5055427;28;20048;-81
2022/08/17 06:08:35;;;;;;;14.20;8.15;;;23.00;99.90;;;;;;5042121;28;20096;-80
2022/08/17 06:11:08;;;;;;;45.88;13.27;;;23.10;99.90;;;;;;5039052;28;20045;-82
2022/08/17 06:13:49;;;;;;;17.33;8.63;;;23.40;99.90;;;;;;5048813;28;20049;-82
2022/08/17 06:16:25;;;;;;;17.90;7.85;;;23.20;99.90;;;;;;5041374;28;20068;-82
2022/08/17 06:18:59;;;;;;;13.18;8.38;;;23.10;99.90;;;;;;5042618;28;20048;-82
2022/08/17 06:21:32;;;;;;;17.75;8.40;;;23.20;99.90;;;;;;5060853;28;20124;-82
2022/08/17 06:24:05;;;;;;;12.48;6.82;;;23.10;99.90;;;;;;5048050;28;20128;-80
2022/08/17 06:26:36;;;;;;;14.35;7.90;;;23.10;99.90;;;;;;5040034;28;20107;-79
2022/08/17 06:29:11;;;;;;;13.45;7.75;;;23.20;99.90;;;;;;5049496;28;20123;-78
2022/08/17 06:31:41;;;;;;;19.80;7.72;;;23.30;99.90;;;;;;5043737;28;20091;-81
2022/08/17 06:34:11;;;;;;;17.23;7.32;;;23.60;99.90;;;;;;5039760;28;20495;-80
2022/08/17 06:36:49;;;;;;;14.07;7.20;;;24.10;99.90;;;;;;5059817;28;20569;-83
2022/08/17 06:39:32;;;;;;;12.20;5.95;;;24.30;99.90;;;;;;5041206;28;20424;-81
2022/08/17 06:42:10;;;;;;;10.23;6.65;;;24.40;99.90;;;;;;5040716;28;20112;-82
2022/08/17 06:44:43;;;;;;;12.23;6.78;;;24.70;99.90;;;;;;5060107;28;20053;-82
2022/08/17 06:47:17;;;;;;;10.43;6.45;;;24.70;99.90;;;;;;5028270;28;20049;-81
2022/08/17 06:49:51;;;;;;;12.85;7.28;;;24.80;99.90;;;;;;5038410;28;20047;-80
2022/08/17 06:52:22;;;;;;;10.35;7.50;;;25.00;99.90;;;;;;5038628;28;20045;-79
2022/08/17 06:54:56;;;;;;;11.27;7.20;;;25.40;99.90;;;;;;5041606;28;20049;-79
2022/08/17 06:57:28;;;;;;;17.73;8.23;;;25.80;99.90;;;;;;5058554;28;20393;-80
2022/08/17 06:59:59;;;;;;;13.23;7.97;;;25.80;99.90;;;;;;5060186;28;20048;-80
2022/08/17 07:02:44;;;;;;;10.45;6.80;;;25.80;99.90;;;;;;5059903;28;20057;-81
2022/08/17 07:05:12;;;;;;;11.75;8.00;;;25.90;99.90;;;;;;5042031;28;20052;-82
2022/08/17 07:08:01;;;;;;;12.02;7.10;;;25.90;99.90;;;;;;5058072;28;20036;-82
2022/08/17 07:10:39;;;;;;;18.55;8.65;;;25.90;99.90;;;;;;5041230;28;20416;-82
2022/08/17 07:13:32;;;;;;;15.85;8.85;;;26.00;99.90;;;;;;5061978;28;20040;-83
2022/08/17 07:16:11;;;;;;;16.58;9.10;;;26.00;99.90;;;;;;5062543;28;20045;-81
2022/08/17 07:18:40;;;;;;;14.38;8.32;;;26.00;99.90;;;;;;5057753;28;20086;-81
2022/08/17 07:21:17;;;;;;;14.73;8.63;;;26.10;99.90;;;;;;5035706;28;20053;-80
2022/08/17 07:23:59;;;;;;;14.18;9.13;;;26.00;99.90;;;;;;5059850;28;20464;-80
2022/08/17 07:26:27;;;;;;;14.60;9.50;;;26.10;99.90;;;;;;5032609;28;20041;-81
2022/08/17 07:28:55;;;;;;;19.02;9.00;;;26.30;99.90;;;;;;5066119;28;20041;-81
2022/08/17 07:31:24;;;;;;;13.80;8.73;;;26.50;99.90;;;;;;5065396;28;20036;-81
2022/08/17 07:34:07;;;;;;;18.77;10.20;;;26.50;99.90;;;;;;5043144;28;20053;-81
2022/08/17 07:36:35;;;;;;;17.55;8.85;;;26.80;99.90;;;;;;5037599;28;20045;-80
2022/08/17 07:39:04;;;;;;;24.17;10.52;;;27.10;99.90;;;;;;5040490;28;20059;-79
2022/08/17 07:41:39;;;;;;;18.98;12.10;;;27.50;99.90;;;;;;5035952;28;20044;-80
2022/08/17 07:44:12;;;;;;;21.75;11.55;;;27.70;99.90;;;;;;5065665;28;20079;-81
2022/08/17 07:49:38;;;;;;;22.75;12.50;;;27.70;99.90;;;;;;5060495;28;20047;-81
2022/08/17 07:52:08;;;;;;;23.45;12.98;;;27.80;99.90;;;;;;5058615;28;20041;-81
2022/08/17 07:54:38;;;;;;;17.10;9.45;;;28.00;99.90;;;;;;5054285;28;20041;-80
2022/08/17 07:57:30;;;;;;;13.77;8.88;;;28.20;99.90;;;;;;5056381;28;20048;-81
2022/08/17 08:00:14;;;;;;;15.30;10.57;;;28.40;99.90;;;;;;5038951;28;20052;-82
2022/08/17 08:02:44;;;;;;;17.77;9.15;;;28.40;99.90;;;;;;5038963;28;20091;-82
2022/08/17 08:05:19;;;;;;;13.43;7.70;;;28.60;99.90;;;;;;5038821;28;20049;-82
2022/08/17 08:07:53;;;;;;;18.10;9.02;;;28.60;99.90;;;;;;5056294;28;20045;-81
2022/08/17 08:10:29;;;;;;;13.05;8.45;;;28.70;99.90;;;;;;5041164;28;20052;-80
2022/08/17 08:13:14;;;;;;;14.55;8.18;;;28.70;99.90;;;;;;5041807;28;20053;-83
2022/08/17 08:15:47;;;;;;;11.85;6.57;;;28.50;99.90;;;;;;5057547;28;20518;-82
2022/08/17 08:18:24;;;;;;;9.65;6.72;;;28.50;99.90;;;;;;5057871;28;20120;-82
2022/08/17 08:20:57;;;;;;;11.75;7.32;;;28.60;99.90;;;;;;5058990;28;20037;-82
2022/08/17 08:23:39;;;;;;;11.52;7.10;;;28.70;99.90;;;;;;5058388;28;20041;-81
2022/08/17 08:26:20;;;;;;;11.65;6.57;;;28.60;99.90;;;;;;5041126;28;20103;-80
2022/08/17 08:29:07;;;;;;;12.85;7.45;;;28.50;99.90;;;;;;5057407;28;20041;-82
2022/08/17 08:31:50;;;;;;;13.27;7.85;;;28.40;99.90;;;;;;5057601;28;20040;-81
2022/08/17 08:34:25;;;;;;;15.55;9.25;;;28.40;99.90;;;;;;5057153;28;20056;-82
2022/08/17 08:37:02;;;;;;;14.77;9.60;;;28.40;99.90;;;;;;5057496;28;20049;-81
2022/08/17 08:39:35;;;;;;;15.30;8.80;;;28.50;99.90;;;;;;5057149;28;20132;-81
2022/08/17 08:42:08;;;;;;;16.88;9.07;;;28.80;99.90;;;;;;5039407;28;20049;-82
2022/08/17 08:44:46;;;;;;;15.23;11.45;;;29.00;99.90;;;;;;5057985;28;20465;-80
2022/08/17 08:47:22;;;;;;;14.30;8.57;;;29.10;99.90;;;;;;5057975;28;20049;-83
2022/08/17 08:50:04;;;;;;;14.35;7.10;;;29.10;99.90;;;;;;5058391;28;20041;-82
2022/08/17 08:52:57;;;;;;;10.80;7.15;;;28.80;99.90;;;;;;5067549;28;20064;-80
2022/08/17 08:55:34;;;;;;;12.88;8.13;;;28.80;99.90;;;;;;5049727;28;20118;-81
2022/08/17 08:58:07;;;;;;;10.68;7.68;;;28.90;99.90;;;;;;5038195;28;20523;-80
2022/08/17 09:00:40;;;;;;;11.63;7.88;;;29.10;99.90;;;;;;5057066;28;20098;-81
2022/08/17 09:03:41;;;;;;;11.35;7.45;;;29.30;99.90;;;;;;5059907;28;20487;-82
2022/08/17 09:06:18;;;;;;;15.05;8.63;;;29.50;99.90;;;;;;5050393;28;20094;-81
2022/08/17 09:09:00;;;;;;;13.50;7.03;;;29.60;99.90;;;;;;5055921;28;20155;-81
2022/08/17 09:11:39;;;;;;;10.85;6.63;;;29.60;99.90;;;;;;5069275;28;20037;-83
2022/08/17 09:14:16;;;;;;;14.90;11.23;;;29.40;99.90;;;;;;5062352;28;20083;-82
2022/08/17 09:16:50;;;;;;;10.48;8.70;;;29.50;99.90;;;;;;5062636;28;20045;-82
2022/08/17 09:19:29;;;;;;;12.77;8.65;;;29.50;99.90;;;;;;5034553;28;20410;-83
2022/08/17 09:22:06;;;;;;;15.55;10.27;;;29.60;99.90;;;;;;5057559;28;20086;-82
2022/08/17 09:24:40;;;;;;;12.13;9.40;;;29.60;99.90;;;;;;5057984;28;20401;-82
2022/08/17 09:27:13;;;;;;;19.48;9.60;;;29.60;99.90;;;;;;5039428;28;20048;-81
2022/08/17 09:29:46;;;;;;;15.98;10.93;;;29.60;99.90;;;;;;5047742;28;20049;-81
2022/08/17 09:32:19;;;;;;;16.95;11.07;;;29.70;99.90;;;;;;5038162;28;20037;-81
2022/08/17 09:34:53;;;;;;;14.93;10.00;;;29.80;99.90;;;;;;5037313;28;20445;-82
2022/08/17 09:37:25;;;;;;;13.90;9.57;;;30.10;99.90;;;;;;5037916;28;20049;-83
2022/08/17 09:40:07;;;;;;;13.52;8.55;;;30.20;99.60;;;;;;5041319;28;20049;-82
2022/08/17 09:42:44;;;;;;;16.40;9.43;;;30.20;99.90;;;;;;5024246;28;20141;-82
2022/08/17 09:45:26;;;;;;;13.70;8.95;;;30.10;99.10;;;;;;5023008;28;20049;-83
2022/08/17 09:47:59;;;;;;;13.20;7.68;;;30.00;99.40;;;;;;5042853;28;20045;-82
2022/08/17 09:50:33;;;;;;;9.90;7.20;;;29.90;98.70;;;;;;5023873;28;20077;-82
2022/08/17 09:53:02;;;;;;;13.25;7.78;;;29.90;98.40;;;;;;5045761;28;20055;-82
2022/08/17 09:55:44;;;;;;;12.60;7.65;;;30.00;97.80;;;;;;5071175;23;20111;-79
2022/08/17 09:58:20;;;;;;;10.52;8.00;;;29.70;98.20;;;;;;5060763;28;20037;-80
2022/08/17 10:00:53;;;;;;;10.68;7.43;;;29.80;98.60;;;;;;5044807;28;20055;-81
2022/08/17 10:03:34;;;;;;;10.65;7.88;;;29.90;98.50;;;;;;5043649;28;20388;-79
2022/08/17 10:06:07;;;;;;;17.05;10.80;;;30.10;98.80;;;;;;5043823;28;20075;-79
2022/08/17 10:08:42;;;;;;;11.95;8.00;;;30.20;98.90;;;;;;5042021;28;20057;-80
2022/08/17 10:12:14;;;;;;;16.30;8.73;;;30.30;98.10;;;;;;5064248;28;20038;-79
2022/08/17 10:14:23;;;;;;;19.15;14.02;;;30.30;97.70;;;;;;5041008;28;20036;-78
2022/08/17 10:16:56;;;;;;;9.65;6.80;;;30.40;97.10;;;;;;5062873;28;20044;-79
2022/08/17 10:19:31;;;;;;;12.15;7.32;;;30.40;96.50;;;;;;5044239;28;20045;-78
2022/08/17 10:27:47;;;;;;;8.00;5.70;;;30.80;94.40;;;;;;5069070;28;20049;-78
2022/08/17 10:30:18;;;;;;;11.10;6.20;;;30.70;94.60;;;;;;5081093;28;20051;-78
2022/08/17 10:32:53;;;;;;;10.20;5.88;;;30.60;94.30;;;;;;5063240;28;20090;-80
2022/08/17 10:35:43;;;;;;;12.40;8.48;;;30.60;93.60;;;;;;5081630;28;20449;-81
2022/08/17 10:38:31;;;;;;;11.23;6.40;;;30.70;93.60;;;;;;5064651;28;20051;-79
2022/08/17 10:41:04;;;;;;;7.70;5.05;;;30.70;93.10;;;;;;5079396;28;20075;-80
2022/08/17 10:43:43;;;;;;;8.98;5.47;;;30.70;93.00;;;;;;5063156;28;20160;-79
2022/08/17 10:46:18;;;;;;;10.93;8.98;;;30.50;92.80;;;;;;5062078;28;20041;-79
2022/08/17 10:49:07;;;;;;;13.05;6.88;;;30.60;93.20;;;;;;5072475;28;20066;-79
2022/08/17 10:51:38;;;;;;;12.32;7.95;;;30.70;93.10;;;;;;5081608;28;20041;-80
2022/08/17 10:54:07;;;;;;;7.72;5.30;;;30.90;92.50;;;;;;5080181;28;20072;-80
2022/08/17 10:56:49;;;;;;;17.05;12.27;;;30.90;92.00;;;;;;5064668;28;20420;-79
2022/08/17 10:59:53;;;;;;;10.68;7.38;;;30.70;92.40;;;;;;5059760;28;20041;-78
2022/08/17 11:02:26;;;;;;;8.48;5.43;;;30.80;92.40;;;;;;5042937;28;20048;-79
2022/08/17 11:05:17;;;;;;;8.75;5.15;;;30.90;92.20;;;;;;5042127;28;20053;-79
2022/08/17 11:08:04;;;;;;;10.43;6.35;;;30.70;91.70;;;;;;5059979;28;20041;-78
2022/08/17 11:10:49;;;;;;;9.13;7.18;;;30.80;91.70;;;;;;5042097;28;20044;-80
2022/08/17 11:13:29;;;;;;;12.05;7.18;;;30.80;91.80;;;;;;5062442;28;20056;-80
2022/08/17 11:16:08;;;;;;;13.30;9.70;;;30.90;91.70;;;;;;5046460;28;20057;-79
2022/08/17 11:19:07;;;;;;;10.05;6.57;;;31.00;91.20;;;;;;5061240;28;20048;-77
2022/08/17 11:21:59;;;;;;;8.52;6.45;;;31.00;91.60;;;;;;5042102;28;20041;-80
2022/08/17 11:24:35;;;;;;;18.67;13.88;;;31.00;91.50;;;;;;5059269;28;20041;-79
2022/08/17 11:27:08;;;;;;;7.97;6.20;;;31.10;91.90;;;;;;5042136;28;20130;-80
2022/08/17 11:29:46;;;;;;;12.95;8.20;;;31.20;91.40;;;;;;5046424;28;20071;-79
2022/08/17 11:32:31;;;;;;;7.13;5.47;;;31.00;90.80;;;;;;5073026;28;20048;-81
2022/08/17 11:35:23;;;;;;;8.45;5.80;;;31.10;90.80;;;;;;5044327;28;20463;-81
2022/08/17 11:38:01;;;;;;;7.70;5.50;;;31.10;90.50;;;;;;5042736;28;20072;-80
2022/08/17 11:40:46;;;;;;;7.15;4.70;;;31.10;90.20;;;;;;5052226;28;20443;-79
2022/08/17 11:43:40;;;;;;;11.13;5.03;;;31.00;89.70;;;;;;5048217;28;20049;-80
2022/08/17 11:46:20;;;;;;;10.00;7.55;;;30.90;90.10;;;;;;5052853;28;20068;-79
2022/08/17 11:52:08;;;;;;;9.27;6.20;;;31.10;90.00;;;;;;5061457;28;20068;-79
2022/08/17 11:54:45;;;;;;;13.95;10.15;;;31.20;89.70;;;;;;5040522;28;20055;-79
2022/08/17 11:58:01;;;;;;;8.52;5.75;;;31.20;90.20;;;;;;5041203;28;20048;-78
2022/08/17 12:00:55;;;;;;;10.23;6.82;;;31.40;89.50;;;;;;5060491;28;20049;-78
2022/08/17 12:03:41;;;;;;;9.90;8.20;;;31.50;88.40;;;;;;5058649;28;20064;-78
2022/08/17 12:06:15;;;;;;;;;;;31.50;87.50;;;;;;5077029;28;20039;-81
2022/08/17 12:08:50;;;;;;;8.05;5.53;;;31.40;87.20;;;;;;5075937;28;19912;-79
2022/08/17 12:11:24;;;;;;;9.93;4.95;;;31.30;86.70;;;;;;5047532;28;20573;-81
2022/08/17 12:13:56;;;;;;;11.05;5.30;;;31.30;87.00;;;;;;5040720;28;20048;-78
2022/08/17 12:16:25;;;;;;;12.43;5.95;;;31.30;86.50;;;;;;5041725;28;20460;-78
2022/08/17 12:18:57;;;;;;;8.75;5.68;;;31.40;85.90;;;;;;5059536;28;20051;-80
2022/08/17 12:21:43;;;;;;;6.13;4.57;;;31.50;84.20;;;;;;5040621;28;20076;-79
2022/08/17 12:24:30;;;;;;;5.85;4.80;;;31.40;84.10;;;;;;5038659;28;20052;-79
2022/08/17 12:26:59;;;;;;;6.68;4.85;;;31.40;83.60;;;;;;5057595;28;20033;-78
2022/08/17 12:29:28;;;;;;;6.90;4.60;;;31.40;83.60;;;;;;5046295;28;20091;-79
2022/08/17 12:32:00;;;;;;;9.50;4.60;;;31.40;83.30;;;;;;5058726;28;20074;-78
2022/08/17 12:34:33;;;;;;;6.97;4.85;;;31.50;82.10;;;;;;5058979;28;20096;-78
2022/08/17 12:37:04;;;;;;;12.60;6.70;;;31.50;82.10;;;;;;5076913;28;20036;-78
2022/08/17 12:39:32;;;;;;;7.88;4.88;;;31.70;81.20;;;;;;5059434;28;20045;-82
2022/08/17 12:42:01;;;;;;;9.43;5.75;;;31.70;80.10;;;;;;5059353;28;20495;-80
2022/08/17 12:44:30;;;;;;;7.38;4.22;;;31.70;79.60;;;;;;5063563;28;20041;-79
2022/08/17 12:47:06;;;;;;;6.03;4.60;;;31.50;78.60;;;;;;5062834;28;20052;-80
2022/08/17 12:49:35;;;;;;;6.57;4.57;;;31.50;79.10;;;;;;5070084;28;20072;-81
2022/08/17 12:52:12;;;;;;;9.50;5.10;;;31.50;78.20;;;;;;5068102;28;20036;-81
2022/08/17 12:54:49;;;;;;;5.70;4.28;;;31.40;78.20;;;;;;5064063;28;20052;-80
2022/08/17 12:57:20;;;;;;;9.93;4.72;;;31.40;78.50;;;;;;5029261;28;20501;-77
2022/08/17 12:59:51;;;;;;;7.75;4.78;;;31.50;78.60;;;;;;5041112;28;20065;-78
2022/08/17 13:02:41;;;;;;;5.85;4.10;;;31.50;78.00;;;;;;5024014;28;20518;-78
2022/08/17 13:05:18;;;;;;;6.18;4.07;;;31.60;75.90;;;;;;5030829;28;20057;-77
2022/08/17 13:07:46;;;;;;;7.53;4.10;;;31.50;75.60;;;;;;5038570;28;20056;-78
2022/08/17 13:10:20;;;;;;;5.13;3.83;;;31.60;74.40;;;;;;5022547;28;20037;-79
2022/08/17 13:12:49;;;;;;;9.68;4.78;;;31.60;74.80;;;;;;5042159;28;20045;-80
2022/08/17 13:15:23;;;;;;;6.00;4.95;;;31.60;75.50;;;;;;5040493;28;20049;-79
2022/08/17 13:18:06;;;;;;;5.05;4.40;;;31.70;75.50;;;;;;5039349;28;20041;-76
2022/08/17 13:20:33;;;;;;;5.90;3.97;;;31.50;74.10;;;;;;5038072;28;20042;-78
2022/08/17 13:23:04;;;;;;;11.05;4.28;;;31.50;74.70;;;;;;5040350;28;20072;-78
2022/08/17 13:25:32;;;;;;;5.82;4.30;;;31.40;74.20;;;;;;5049279;28;20049;-78
2022/08/17 13:27:59;;;;;;;7.25;4.35;;;31.30;73.90;;;;;;5052068;28;20037;-79
2022/08/17 13:30:31;;;;;;;6.60;4.10;;;31.40;73.70;;;;;;5055393;28;20049;-79
2022/08/17 13:33:00;;;;;;;7.85;5.95;;;31.50;73.20;;;;;;5014604;28;20042;-79
2022/08/17 13:35:42;;;;;;;7.97;4.30;;;31.40;73.50;;;;;;5023180;28;20121;-79